sensor_id;sensor_type;location;lat;lon;timestamp;P1;durP1;ratioP1;P2;durP2;ratioP2
52764;SDS011;38650;44.536;18.664;2022-07-06T00:02:20;11.52;;;8.77;;
52764;SDS011;38650;44.536;18.664;2022-07-06T00:04:45;9.35;;;7.88;;
52764;SDS011;38650;44.536;18.664;2022-07-06T00:07:11;9.05;;;7.15;;
52764;SDS011;38650;44.536;18.664;2022-07-06T00:09:39;10.35;;;7.68;;
52764;SDS011;38650;44.536;18.664;2022-07-06T00:12:05;11.23;;;8.57;;
52764;SDS011;38650;44.536;18.664;2022-07-06T00:14:31;8.70;;;6.65;;
52764;SDS011;38650;44.536;18.664;2022-07-06T00:16:57;8.25;;;7.05;;
52764;SDS011;38650;44.536;18.664;2022-07-06T00:19:23;10.73;;;8.93;;
52764;SDS011;38650;44.536;18.664;2022-07-06T00:21:48;12.90;;;9.57;;
52764;SDS011;38650;44.536;18.664;2022-07-06T00:24:14;9.45;;;7.82;;
52764;SDS011;38650;44.536;18.664;2022-07-06T00:26:41;9.40;;;6.85;;
52764;SDS011;38650;44.536;18.664;2022-07-06T00:29:07;7.78;;;6.43;;
52764;SDS011;38650;44.536;18.664;2022-07-06T00:31:32;6.85;;;5.05;;
52764;SDS011;38650;44.536;18.664;2022-07-06T00:33:58;7.18;;;5.30;;
52764;SDS011;38650;44.536;18.664;2022-07-06T00:36:23;7.57;;;5.00;;
52764;SDS011;38650;44.536;18.664;2022-07-06T00:38:49;5.47;;;4.05;;
52764;SDS011;38650;44.536;18.664;2022-07-06T00:41:16;4.93;;;4.03;;
52764;SDS011;38650;44.536;18.664;2022-07-06T00:43:52;8.85;;;4.85;;
52764;SDS011;38650;44.536;18.664;2022-07-06T00:46:30;7.70;;;4.40;;
52764;SDS011;38650;44.536;18.664;2022-07-06T00:48:57;7.50;;;4.95;;
52764;SDS011;38650;44.536;18.664;2022-07-06T00:51:25;5.13;;;3.97;;
52764;SDS011;38650;44.536;18.664;2022-07-06T00:53:54;13.35;;;7.70;;
52764;SDS011;38650;44.536;18.664;2022-07-06T00:56:23;10.00;;;8.05;;
52764;SDS011;38650;44.536;18.664;2022-07-06T00:58:50;13.07;;;8.23;;
52764;SDS011;38650;44.536;18.664;2022-07-06T01:01:15;15.18;;;10.45;;
52764;SDS011;38650;44.536;18.664;2022-07-06T01:03:41;11.77;;;8.60;;
52764;SDS011;38650;44.536;18.664;2022-07-06T01:06:07;10.80;;;7.38;;
52764;SDS011;38650;44.536;18.664;2022-07-06T01:08:33;8.18;;;6.88;;
52764;SDS011;38650;44.536;18.664;2022-07-06T01:10:58;11.57;;;7.88;;
52764;SDS011;38650;44.536;18.664;2022-07-06T01:13:25;10.77;;;8.27;;
52764;SDS011;38650;44.536;18.664;2022-07-06T01:15:51;11.10;;;8.88;;
52764;SDS011;38650;44.536;18.664;2022-07-06T01:18:18;14.00;;;11.32;;
52764;SDS011;38650;44.536;18.664;2022-07-06T01:20:44;11.35;;;8.50;;
52764;SDS011;38650;44.536;18.664;2022-07-06T01:23:10;10.77;;;6.25;;
52764;SDS011;38650;44.536;18.664;2022-07-06T01:25:35;7.60;;;5.90;;
52764;SDS011;38650;44.536;18.664;2022-07-06T01:28:01;7.88;;;6.30;;
52764;SDS011;38650;44.536;18.664;2022-07-06T01:30:27;7.65;;;5.80;;
52764;SDS011;38650;44.536;18.664;2022-07-06T01:32:53;10.10;;;6.47;;
52764;SDS011;38650;44.536;18.664;2022-07-06T01:35:19;7.47;;;5.80;;
52764;SDS011;38650;44.536;18.664;2022-07-06T01:37:45;9.13;;;6.30;;
52764;SDS011;38650;44.536;18.664;2022-07-06T01:40:11;6.28;;;5.10;;
52764;SDS011;38650;44.536;18.664;2022-07-06T01:42:37;5.88;;;4.85;;
52764;SDS011;38650;44.536;18.664;2022-07-06T01:45:04;7.85;;;5.25;;
52764;SDS011;38650;44.536;18.664;2022-07-06T01:47:30;6.88;;;5.55;;
52764;SDS011;38650;44.536;18.664;2022-07-06T01:49:58;5.30;;;4.60;;
52764;SDS011;38650;44.536;18.664;2022-07-06T01:52:25;9.95;;;5.95;;
52764;SDS011;38650;44.536;18.664;2022-07-06T01:54:51;6.80;;;5.28;;
52764;SDS011;38650;44.536;18.664;2022-07-06T01:57:17;5.63;;;4.35;;
52764;SDS011;38650;44.536;18.664;2022-07-06T01:59:42;7.57;;;5.38;;
52764;SDS011;38650;44.536;18.664;2022-07-06T02:02:08;6.07;;;4.63;;
52764;SDS011;38650;44.536;18.664;2022-07-06T02:04:34;6.90;;;5.50;;
52764;SDS011;38650;44.536;18.664;2022-07-06T02:06:59;7.78;;;5.97;;
52764;SDS011;38650;44.536;18.664;2022-07-06T02:09:26;8.55;;;5.82;;
52764;SDS011;38650;44.536;18.664;2022-07-06T02:11:52;5.68;;;4.93;;
52764;SDS011;38650;44.536;18.664;2022-07-06T02:14:18;6.10;;;5.07;;
52764;SDS011;38650;44.536;18.664;2022-07-06T02:16:43;5.65;;;4.68;;
52764;SDS011;38650;44.536;18.664;2022-07-06T02:19:09;6.10;;;4.30;;
52764;SDS011;38650;44.536;18.664;2022-07-06T02:21:35;6.80;;;4.60;;
52764;SDS011;38650;44.536;18.664;2022-07-06T02:24:00;5.13;;;3.85;;
52764;SDS011;38650;44.536;18.664;2022-07-06T02:26:26;13.07;;;6.93;;
52764;SDS011;38650;44.536;18.664;2022-07-06T02:28:51;12.63;;;8.40;;
52764;SDS011;38650;44.536;18.664;2022-07-06T02:31:17;9.48;;;6.85;;
52764;SDS011;38650;44.536;18.664;2022-07-06T02:33:43;10.07;;;7.10;;
52764;SDS011;38650;44.536;18.664;2022-07-06T02:36:08;11.65;;;7.25;;
52764;SDS011;38650;44.536;18.664;2022-07-06T02:38:34;9.70;;;6.60;;
52764;SDS011;38650;44.536;18.664;2022-07-06T02:41:00;9.48;;;5.40;;
52764;SDS011;38650;44.536;18.664;2022-07-06T02:43:25;7.93;;;5.45;;
52764;SDS011;38650;44.536;18.664;2022-07-06T02:45:51;10.30;;;6.15;;
52764;SDS011;38650;44.536;18.664;2022-07-06T02:48:17;10.52;;;6.80;;
52764;SDS011;38650;44.536;18.664;2022-07-06T02:50:44;7.00;;;5.45;;
52764;SDS011;38650;44.536;18.664;2022-07-06T02:53:10;9.35;;;5.65;;
52764;SDS011;38650;44.536;18.664;2022-07-06T02:55:35;8.85;;;5.57;;
52764;SDS011;38650;44.536;18.664;2022-07-06T02:58:01;8.13;;;5.72;;
52764;SDS011;38650;44.536;18.664;2022-07-06T03:00:27;19.67;;;8.57;;
52764;SDS011;38650;44.536;18.664;2022-07-06T03:02:52;13.68;;;8.13;;
52764;SDS011;38650;44.536;18.664;2022-07-06T03:05:18;10.30;;;7.15;;
52764;SDS011;38650;44.536;18.664;2022-07-06T03:07:43;13.32;;;7.75;;
52764;SDS011;38650;44.536;18.664;2022-07-06T03:10:09;15.32;;;8.35;;
52764;SDS011;38650;44.536;18.664;2022-07-06T03:12:35;12.70;;;7.50;;
52764;SDS011;38650;44.536;18.664;2022-07-06T03:15:00;19.25;;;9.13;;
52764;SDS011;38650;44.536;18.664;2022-07-06T03:17:26;16.65;;;8.80;;
52764;SDS011;38650;44.536;18.664;2022-07-06T03:19:52;15.40;;;8.13;;
52764;SDS011;38650;44.536;18.664;2022-07-06T03:22:17;11.63;;;6.57;;
52764;SDS011;38650;44.536;18.664;2022-07-06T03:24:43;12.15;;;7.15;;
52764;SDS011;38650;44.536;18.664;2022-07-06T03:27:09;12.75;;;7.97;;
52764;SDS011;38650;44.536;18.664;2022-07-06T03:29:35;19.80;;;10.63;;
52764;SDS011;38650;44.536;18.664;2022-07-06T03:32:00;28.15;;;12.98;;
52764;SDS011;38650;44.536;18.664;2022-07-06T03:34:26;39.03;;;16.92;;
52764;SDS011;38650;44.536;18.664;2022-07-06T03:36:53;23.98;;;13.68;;
52764;SDS011;38650;44.536;18.664;2022-07-06T03:39:18;38.22;;;15.52;;
52764;SDS011;38650;44.536;18.664;2022-07-06T03:41:44;60.33;;;22.35;;
52764;SDS011;38650;44.536;18.664;2022-07-06T03:44:10;40.75;;;16.20;;
52764;SDS011;38650;44.536;18.664;2022-07-06T03:46:35;54.75;;;21.25;;
52764;SDS011;38650;44.536;18.664;2022-07-06T03:49:01;64.38;;;22.95;;
52764;SDS011;38650;44.536;18.664;2022-07-06T03:51:27;33.70;;;17.00;;
52764;SDS011;38650;44.536;18.664;2022-07-06T03:53:53;39.35;;;17.40;;
52764;SDS011;38650;44.536;18.664;2022-07-06T03:56:18;44.78;;;19.15;;
52764;SDS011;38650;44.536;18.664;2022-07-06T03:58:54;31.15;;;15.48;;
52764;SDS011;38650;44.536;18.664;2022-07-06T04:01:20;33.88;;;15.95;;
52764;SDS011;38650;44.536;18.664;2022-07-06T04:03:46;30.58;;;14.30;;
52764;SDS011;38650;44.536;18.664;2022-07-06T04:06:11;41.67;;;17.75;;
52764;SDS011;38650;44.536;18.664;2022-07-06T04:08:38;37.67;;;16.98;;
52764;SDS011;38650;44.536;18.664;2022-07-06T04:11:03;39.15;;;16.25;;
52764;SDS011;38650;44.536;18.664;2022-07-06T04:13:29;30.25;;;14.43;;
52764;SDS011;38650;44.536;18.664;2022-07-06T04:15:55;26.15;;;13.43;;
52764;SDS011;38650;44.536;18.664;2022-07-06T04:18:20;34.83;;;15.30;;
52764;SDS011;38650;44.536;18.664;2022-07-06T04:20:46;33.28;;;15.00;;
52764;SDS011;38650;44.536;18.664;2022-07-06T04:23:12;32.38;;;14.10;;
52764;SDS011;38650;44.536;18.664;2022-07-06T04:25:37;25.77;;;13.23;;
52764;SDS011;38650;44.536;18.664;2022-07-06T04:28:03;35.42;;;15.75;;
52764;SDS011;38650;44.536;18.664;2022-07-06T04:30:29;36.28;;;15.35;;
52764;SDS011;38650;44.536;18.664;2022-07-06T04:32:55;39.35;;;16.90;;
52764;SDS011;38650;44.536;18.664;2022-07-06T04:35:21;53.47;;;19.95;;
52764;SDS011;38650;44.536;18.664;2022-07-06T04:37:46;46.75;;;19.08;;
52764;SDS011;38650;44.536;18.664;2022-07-06T04:40:13;30.08;;;14.40;;
52764;SDS011;38650;44.536;18.664;2022-07-06T04:42:39;63.15;;;23.08;;
52764;SDS011;38650;44.536;18.664;2022-07-06T04:45:05;35.15;;;16.75;;
52764;SDS011;38650;44.536;18.664;2022-07-06T04:47:31;36.28;;;15.48;;
52764;SDS011;38650;44.536;18.664;2022-07-06T04:49:57;61.45;;;24.13;;
52764;SDS011;38650;44.536;18.664;2022-07-06T04:52:23;50.75;;;22.88;;
52764;SDS011;38650;44.536;18.664;2022-07-06T04:54:49;38.03;;;18.13;;
52764;SDS011;38650;44.536;18.664;2022-07-06T04:57:15;32.38;;;16.88;;
52764;SDS011;38650;44.536;18.664;2022-07-06T04:59:40;60.65;;;25.23;;
52764;SDS011;38650;44.536;18.664;2022-07-06T05:02:06;52.92;;;22.20;;
52764;SDS011;38650;44.536;18.664;2022-07-06T05:04:32;40.30;;;22.10;;
52764;SDS011;38650;44.536;18.664;2022-07-06T05:06:57;38.55;;;19.23;;
52764;SDS011;38650;44.536;18.664;2022-07-06T05:09:23;33.85;;;18.05;;
52764;SDS011;38650;44.536;18.664;2022-07-06T05:11:49;30.48;;;16.70;;
52764;SDS011;38650;44.536;18.664;2022-07-06T05:14:15;24.73;;;15.00;;
52764;SDS011;38650;44.536;18.664;2022-07-06T05:16:40;39.83;;;21.20;;
52764;SDS011;38650;44.536;18.664;2022-07-06T05:19:06;47.30;;;23.38;;
52764;SDS011;38650;44.536;18.664;2022-07-06T05:21:32;39.38;;;20.90;;
52764;SDS011;38650;44.536;18.664;2022-07-06T05:23:57;34.60;;;19.35;;
52764;SDS011;38650;44.536;18.664;2022-07-06T05:26:23;24.05;;;15.45;;
52764;SDS011;38650;44.536;18.664;2022-07-06T05:28:49;23.45;;;14.55;;
52764;SDS011;38650;44.536;18.664;2022-07-06T05:31:15;25.38;;;16.63;;
52764;SDS011;38650;44.536;18.664;2022-07-06T05:33:40;30.80;;;16.52;;
52764;SDS011;38650;44.536;18.664;2022-07-06T05:36:07;28.08;;;15.80;;
52764;SDS011;38650;44.536;18.664;2022-07-06T05:38:32;22.60;;;13.82;;
52764;SDS011;38650;44.536;18.664;2022-07-06T05:40:59;21.70;;;12.73;;
52764;SDS011;38650;44.536;18.664;2022-07-06T05:43:24;16.85;;;10.50;;
52764;SDS011;38650;44.536;18.664;2022-07-06T05:45:50;14.77;;;9.85;;
52764;SDS011;38650;44.536;18.664;2022-07-06T05:48:16;12.85;;;8.80;;
52764;SDS011;38650;44.536;18.664;2022-07-06T05:51:01;22.30;;;12.82;;
52764;SDS011;38650;44.536;18.664;2022-07-06T05:53:26;22.05;;;12.82;;
52764;SDS011;38650;44.536;18.664;2022-07-06T05:55:52;20.40;;;12.13;;
52764;SDS011;38650;44.536;18.664;2022-07-06T05:58:18;15.68;;;10.50;;
52764;SDS011;38650;44.536;18.664;2022-07-06T06:00:44;13.63;;;9.30;;
52764;SDS011;38650;44.536;18.664;2022-07-06T06:03:09;13.02;;;8.70;;
52764;SDS011;38650;44.536;18.664;2022-07-06T06:05:35;12.77;;;8.30;;
52764;SDS011;38650;44.536;18.664;2022-07-06T06:08:01;10.88;;;7.85;;
52764;SDS011;38650;44.536;18.664;2022-07-06T06:10:27;15.95;;;10.35;;
52764;SDS011;38650;44.536;18.664;2022-07-06T06:12:53;12.02;;;8.05;;
52764;SDS011;38650;44.536;18.664;2022-07-06T06:15:18;9.43;;;6.97;;
52764;SDS011;38650;44.536;18.664;2022-07-06T06:17:44;7.60;;;6.40;;
52764;SDS011;38650;44.536;18.664;2022-07-06T06:20:11;7.70;;;5.95;;
52764;SDS011;38650;44.536;18.664;2022-07-06T06:25:13;5.75;;;5.18;;
52764;SDS011;38650;44.536;18.664;2022-07-06T06:27:40;5.70;;;4.95;;
52764;SDS011;38650;44.536;18.664;2022-07-06T06:30:06;4.43;;;4.03;;
52764;SDS011;38650;44.536;18.664;2022-07-06T06:32:32;3.80;;;3.50;;
52764;SDS011;38650;44.536;18.664;2022-07-06T06:34:57;3.58;;;3.25;;
52764;SDS011;38650;44.536;18.664;2022-07-06T06:37:23;3.10;;;2.58;;
52764;SDS011;38650;44.536;18.664;2022-07-06T06:39:49;2.65;;;2.45;;
52764;SDS011;38650;44.536;18.664;2022-07-06T06:42:14;9.98;;;6.03;;
52764;SDS011;38650;44.536;18.664;2022-07-06T06:44:40;10.63;;;7.43;;
52764;SDS011;38650;44.536;18.664;2022-07-06T06:47:06;7.60;;;5.20;;
52764;SDS011;38650;44.536;18.664;2022-07-06T06:49:31;5.88;;;5.38;;
52764;SDS011;38650;44.536;18.664;2022-07-06T06:51:57;4.60;;;4.20;;
52764;SDS011;38650;44.536;18.664;2022-07-06T06:54:23;5.13;;;3.67;;
52764;SDS011;38650;44.536;18.664;2022-07-06T06:56:48;6.22;;;4.43;;
52764;SDS011;38650;44.536;18.664;2022-07-06T06:59:14;3.92;;;3.55;;
52764;SDS011;38650;44.536;18.664;2022-07-06T07:01:40;4.25;;;3.85;;
52764;SDS011;38650;44.536;18.664;2022-07-06T07:04:05;4.85;;;3.50;;
52764;SDS011;38650;44.536;18.664;2022-07-06T07:06:31;7.43;;;5.82;;
52764;SDS011;38650;44.536;18.664;2022-07-06T07:08:57;5.18;;;4.68;;
52764;SDS011;38650;44.536;18.664;2022-07-06T07:11:23;10.75;;;7.05;;
52764;SDS011;38650;44.536;18.664;2022-07-06T07:13:49;8.43;;;6.68;;
52764;SDS011;38650;44.536;18.664;2022-07-06T07:16:15;9.50;;;6.78;;
52764;SDS011;38650;44.536;18.664;2022-07-06T07:18:40;8.15;;;5.93;;
52764;SDS011;38650;44.536;18.664;2022-07-06T07:21:06;7.95;;;5.60;;
52764;SDS011;38650;44.536;18.664;2022-07-06T07:23:32;16.30;;;9.93;;
52764;SDS011;38650;44.536;18.664;2022-07-06T07:25:57;28.45;;;14.75;;
52764;SDS011;38650;44.536;18.664;2022-07-06T07:28:23;24.70;;;13.38;;
52764;SDS011;38650;44.536;18.664;2022-07-06T07:30:49;39.22;;;17.40;;
52764;SDS011;38650;44.536;18.664;2022-07-06T07:33:15;25.90;;;13.80;;
52764;SDS011;38650;44.536;18.664;2022-07-06T07:35:41;22.35;;;12.88;;
52764;SDS011;38650;44.536;18.664;2022-07-06T07:38:07;25.55;;;13.98;;
52764;SDS011;38650;44.536;18.664;2022-07-06T07:40:32;18.98;;;11.55;;
52764;SDS011;38650;44.536;18.664;2022-07-06T07:42:59;24.08;;;13.15;;
52764;SDS011;38650;44.536;18.664;2022-07-06T07:45:24;20.58;;;12.05;;
52764;SDS011;38650;44.536;18.664;2022-07-06T07:47:50;20.75;;;11.25;;
52764;SDS011;38650;44.536;18.664;2022-07-06T07:50:15;13.43;;;8.80;;
52764;SDS011;38650;44.536;18.664;2022-07-06T07:52:41;10.07;;;7.38;;
52764;SDS011;38650;44.536;18.664;2022-07-06T07:55:07;5.57;;;4.10;;
52764;SDS011;38650;44.536;18.664;2022-07-06T07:57:33;3.28;;;2.78;;
52764;SDS011;38650;44.536;18.664;2022-07-06T07:59:59;3.08;;;2.10;;
52764;SDS011;38650;44.536;18.664;2022-07-06T08:02:24;2.10;;;2.00;;
52764;SDS011;38650;44.536;18.664;2022-07-06T08:04:50;1.70;;;1.60;;
52764;SDS011;38650;44.536;18.664;2022-07-06T08:07:16;1.80;;;1.70;;
52764;SDS011;38650;44.536;18.664;2022-07-06T08:09:41;1.70;;;1.58;;
52764;SDS011;38650;44.536;18.664;2022-07-06T08:12:07;2.22;;;2.00;;
52764;SDS011;38650;44.536;18.664;2022-07-06T08:14:33;2.00;;;1.50;;
52764;SDS011;38650;44.536;18.664;2022-07-06T08:16:59;2.78;;;1.60;;
52764;SDS011;38650;44.536;18.664;2022-07-06T08:19:25;1.60;;;1.50;;
52764;SDS011;38650;44.536;18.664;2022-07-06T08:21:50;1.77;;;1.60;;
52764;SDS011;38650;44.536;18.664;2022-07-06T08:24:16;1.50;;;1.25;;
52764;SDS011;38650;44.536;18.664;2022-07-06T08:26:42;1.40;;;1.30;;
52764;SDS011;38650;44.536;18.664;2022-07-06T08:29:08;1.30;;;1.20;;
52764;SDS011;38650;44.536;18.664;2022-07-06T08:31:34;1.40;;;1.30;;
52764;SDS011;38650;44.536;18.664;2022-07-06T08:34:00;1.27;;;1.17;;
52764;SDS011;38650;44.536;18.664;2022-07-06T08:36:26;1.42;;;1.33;;
52764;SDS011;38650;44.536;18.664;2022-07-06T08:38:52;1.15;;;1.10;;
52764;SDS011;38650;44.536;18.664;2022-07-06T08:41:20;0.90;;;0.90;;
52764;SDS011;38650;44.536;18.664;2022-07-06T08:43:48;0.93;;;0.93;;
52764;SDS011;38650;44.536;18.664;2022-07-06T08:46:18;2.35;;;1.15;;
52764;SDS011;38650;44.536;18.664;2022-07-06T08:48:45;4.05;;;0.90;;
52764;SDS011;38650;44.536;18.664;2022-07-06T08:51:13;0.90;;;0.88;;
52764;SDS011;38650;44.536;18.664;2022-07-06T08:53:40;1.40;;;1.30;;
52764;SDS011;38650;44.536;18.664;2022-07-06T08:56:07;0.95;;;0.95;;
52764;SDS011;38650;44.536;18.664;2022-07-06T08:58:33;1.40;;;1.30;;
52764;SDS011;38650;44.536;18.664;2022-07-06T09:01:00;1.05;;;0.98;;
52764;SDS011;38650;44.536;18.664;2022-07-06T09:03:26;1.85;;;1.00;;
52764;SDS011;38650;44.536;18.664;2022-07-06T09:05:53;1.17;;;1.08;;
52764;SDS011;38650;44.536;18.664;2022-07-06T09:08:24;2.30;;;1.10;;
52764;SDS011;38650;44.536;18.664;2022-07-06T09:10:52;2.10;;;1.20;;
52764;SDS011;38650;44.536;18.664;2022-07-06T09:13:18;1.40;;;1.10;;
52764;SDS011;38650;44.536;18.664;2022-07-06T09:15:44;1.88;;;1.17;;
52764;SDS011;38650;44.536;18.664;2022-07-06T09:18:10;0.93;;;0.93;;
52764;SDS011;38650;44.536;18.664;2022-07-06T09:20:35;1.38;;;1.13;;
52764;SDS011;38650;44.536;18.664;2022-07-06T09:23:02;1.13;;;1.02;;
52764;SDS011;38650;44.536;18.664;2022-07-06T09:25:30;2.72;;;1.00;;
52764;SDS011;38650;44.536;18.664;2022-07-06T09:27:57;1.02;;;0.98;;
52764;SDS011;38650;44.536;18.664;2022-07-06T09:30:24;0.80;;;0.70;;
52764;SDS011;38650;44.536;18.664;2022-07-06T09:32:53;0.70;;;0.70;;
52764;SDS011;38650;44.536;18.664;2022-07-06T09:35:21;0.80;;;0.80;;
52764;SDS011;38650;44.536;18.664;2022-07-06T09:40:45;1.73;;;0.90;;
52764;SDS011;38650;44.536;18.664;2022-07-06T09:43:12;0.85;;;0.80;;
52764;SDS011;38650;44.536;18.664;2022-07-06T09:48:11;0.98;;;0.70;;
52764;SDS011;38650;44.536;18.664;2022-07-06T09:50:43;0.50;;;0.50;;
52764;SDS011;38650;44.536;18.664;2022-07-06T09:53:11;0.95;;;0.73;;
52764;SDS011;38650;44.536;18.664;2022-07-06T09:55:38;1.90;;;0.75;;
52764;SDS011;38650;44.536;18.664;2022-07-06T09:58:03;1.02;;;0.80;;
52764;SDS011;38650;44.536;18.664;2022-07-06T10:00:29;0.68;;;0.63;;
52764;SDS011;38650;44.536;18.664;2022-07-06T10:02:55;0.80;;;0.80;;
52764;SDS011;38650;44.536;18.664;2022-07-06T10:05:22;1.80;;;0.70;;
52764;SDS011;38650;44.536;18.664;2022-07-06T10:07:58;0.70;;;0.70;;
52764;SDS011;38650;44.536;18.664;2022-07-06T10:10:28;0.70;;;0.70;;
52764;SDS011;38650;44.536;18.664;2022-07-06T10:12:55;1.27;;;0.90;;
52764;SDS011;38650;44.536;18.664;2022-07-06T10:15:23;2.67;;;0.70;;
52764;SDS011;38650;44.536;18.664;2022-07-06T10:17:54;0.82;;;0.80;;
52764;SDS011;38650;44.536;18.664;2022-07-06T10:20:20;1.63;;;0.85;;
52764;SDS011;38650;44.536;18.664;2022-07-06T10:22:47;1.23;;;0.80;;
52764;SDS011;38650;44.536;18.664;2022-07-06T10:25:16;1.42;;;0.77;;
52764;SDS011;38650;44.536;18.664;2022-07-06T10:27:43;0.82;;;0.80;;
52764;SDS011;38650;44.536;18.664;2022-07-06T10:30:10;1.15;;;0.93;;
52764;SDS011;38650;44.536;18.664;2022-07-06T10:32:36;1.23;;;0.93;;
52764;SDS011;38650;44.536;18.664;2022-07-06T10:35:06;0.82;;;0.63;;
52764;SDS011;38650;44.536;18.664;2022-07-06T10:37:32;0.80;;;0.73;;
52764;SDS011;38650;44.536;18.664;2022-07-06T10:39:58;1.27;;;0.70;;
52764;SDS011;38650;44.536;18.664;2022-07-06T10:42:44;1.88;;;0.88;;
52764;SDS011;38650;44.536;18.664;2022-07-06T10:45:17;1.40;;;0.90;;
52764;SDS011;38650;44.536;18.664;2022-07-06T10:50:40;1.23;;;0.80;;
52764;SDS011;38650;44.536;18.664;2022-07-06T10:53:11;0.85;;;0.85;;
52764;SDS011;38650;44.536;18.664;2022-07-06T10:55:38;0.80;;;0.80;;
52764;SDS011;38650;44.536;18.664;2022-07-06T10:58:05;1.38;;;0.68;;
52764;SDS011;38650;44.536;18.664;2022-07-06T11:03:29;0.45;;;0.45;;
52764;SDS011;38650;44.536;18.664;2022-07-06T11:05:59;1.42;;;0.90;;
52764;SDS011;38650;44.536;18.664;2022-07-06T11:19:17;1.02;;;0.80;;
52764;SDS011;38650;44.536;18.664;2022-07-06T11:24:15;2.05;;;0.60;;
52764;SDS011;38650;44.536;18.664;2022-07-06T11:26:42;0.95;;;0.90;;
52764;SDS011;38650;44.536;18.664;2022-07-06T11:29:10;1.27;;;0.77;;
52764;SDS011;38650;44.536;18.664;2022-07-06T11:31:37;0.85;;;0.60;;
52764;SDS011;38650;44.536;18.664;2022-07-06T11:34:07;1.60;;;0.93;;
52764;SDS011;38650;44.536;18.664;2022-07-06T11:36:36;2.17;;;0.93;;
52764;SDS011;38650;44.536;18.664;2022-07-06T11:39:03;0.60;;;0.60;;
52764;SDS011;38650;44.536;18.664;2022-07-06T11:41:30;0.95;;;0.70;;
52764;SDS011;38650;44.536;18.664;2022-07-06T11:43:56;1.58;;;0.90;;
52764;SDS011;38650;44.536;18.664;2022-07-06T11:46:34;0.73;;;0.60;;
52764;SDS011;38650;44.536;18.664;2022-07-06T11:49:07;0.98;;;0.60;;
52764;SDS011;38650;44.536;18.664;2022-07-06T11:51:35;1.52;;;0.80;;
52764;SDS011;38650;44.536;18.664;2022-07-06T11:54:09;1.30;;;0.80;;
52764;SDS011;38650;44.536;18.664;2022-07-06T11:56:36;0.73;;;0.60;;
52764;SDS011;38650;44.536;18.664;2022-07-06T11:59:03;1.63;;;0.70;;
52764;SDS011;38650;44.536;18.664;2022-07-06T12:01:29;2.70;;;0.90;;
52764;SDS011;38650;44.536;18.664;2022-07-06T12:03:59;1.65;;;0.80;;
52764;SDS011;38650;44.536;18.664;2022-07-06T12:06:29;1.80;;;0.73;;
52764;SDS011;38650;44.536;18.664;2022-07-06T12:08:59;0.60;;;0.60;;
52764;SDS011;38650;44.536;18.664;2022-07-06T12:11:29;1.52;;;0.70;;
52764;SDS011;38650;44.536;18.664;2022-07-06T12:14:00;3.58;;;1.00;;
52764;SDS011;38650;44.536;18.664;2022-07-06T12:16:31;1.08;;;0.82;;
52764;SDS011;38650;44.536;18.664;2022-07-06T12:19:02;1.05;;;0.70;;
52764;SDS011;38650;44.536;18.664;2022-07-06T12:21:28;1.45;;;0.80;;
52764;SDS011;38650;44.536;18.664;2022-07-06T12:23:55;3.70;;;0.93;;
52764;SDS011;38650;44.536;18.664;2022-07-06T12:26:22;1.65;;;0.80;;
52764;SDS011;38650;44.536;18.664;2022-07-06T12:29:03;1.17;;;0.80;;
52764;SDS011;38650;44.536;18.664;2022-07-06T12:31:39;1.40;;;0.80;;
52764;SDS011;38650;44.536;18.664;2022-07-06T12:34:27;1.38;;;0.90;;
52764;SDS011;38650;44.536;18.664;2022-07-06T12:36:59;0.80;;;0.80;;
52764;SDS011;38650;44.536;18.664;2022-07-06T12:39:32;0.77;;;0.70;;
52764;SDS011;38650;44.536;18.664;2022-07-06T12:42:10;2.08;;;0.88;;
52764;SDS011;38650;44.536;18.664;2022-07-06T12:44:41;0.70;;;0.70;;
52764;SDS011;38650;44.536;18.664;2022-07-06T12:47:20;0.80;;;0.80;;
52764;SDS011;38650;44.536;18.664;2022-07-06T12:50:03;0.65;;;0.65;;
52764;SDS011;38650;44.536;18.664;2022-07-06T12:52:31;1.17;;;0.77;;
52764;SDS011;38650;44.536;18.664;2022-07-06T12:54:59;1.50;;;0.90;;
52764;SDS011;38650;44.536;18.664;2022-07-06T12:57:25;0.80;;;0.70;;
52764;SDS011;38650;44.536;18.664;2022-07-06T13:02:25;1.10;;;0.80;;
52764;SDS011;38650;44.536;18.664;2022-07-06T13:04:58;0.55;;;0.55;;
52764;SDS011;38650;44.536;18.664;2022-07-06T13:07:24;0.80;;;0.70;;
52764;SDS011;38650;44.536;18.664;2022-07-06T13:09:51;1.65;;;0.60;;
52764;SDS011;38650;44.536;18.664;2022-07-06T13:12:18;1.75;;;0.57;;
52764;SDS011;38650;44.536;18.664;2022-07-06T13:14:44;1.15;;;0.63;;
52764;SDS011;38650;44.536;18.664;2022-07-06T13:17:09;1.30;;;0.80;;
52764;SDS011;38650;44.536;18.664;2022-07-06T13:19:35;1.35;;;0.70;;
52764;SDS011;38650;44.536;18.664;2022-07-06T13:22:01;0.88;;;0.80;;
52764;SDS011;38650;44.536;18.664;2022-07-06T13:24:26;0.50;;;0.50;;
52764;SDS011;38650;44.536;18.664;2022-07-06T13:26:53;1.27;;;0.60;;
52764;SDS011;38650;44.536;18.664;2022-07-06T13:29:20;0.60;;;0.60;;
52764;SDS011;38650;44.536;18.664;2022-07-06T13:31:46;0.65;;;0.65;;
52764;SDS011;38650;44.536;18.664;2022-07-06T13:34:11;1.20;;;0.60;;
52764;SDS011;38650;44.536;18.664;2022-07-06T13:36:38;0.50;;;0.50;;
52764;SDS011;38650;44.536;18.664;2022-07-06T13:39:05;0.50;;;0.50;;
52764;SDS011;38650;44.536;18.664;2022-07-06T13:41:31;0.50;;;0.50;;
52764;SDS011;38650;44.536;18.664;2022-07-06T13:43:57;1.77;;;0.70;;
52764;SDS011;38650;44.536;18.664;2022-07-06T13:46:25;0.85;;;0.50;;
52764;SDS011;38650;44.536;18.664;2022-07-06T13:48:51;1.27;;;0.50;;
52764;SDS011;38650;44.536;18.664;2022-07-06T13:51:17;1.10;;;0.52;;
52764;SDS011;38650;44.536;18.664;2022-07-06T13:53:44;1.58;;;0.50;;
52764;SDS011;38650;44.536;18.664;2022-07-06T13:56:10;0.80;;;0.50;;
52764;SDS011;38650;44.536;18.664;2022-07-06T13:58:36;0.60;;;0.55;;
52764;SDS011;38650;44.536;18.664;2022-07-06T14:01:02;0.90;;;0.60;;
52764;SDS011;38650;44.536;18.664;2022-07-06T14:03:28;0.75;;;0.50;;
52764;SDS011;38650;44.536;18.664;2022-07-06T14:06:04;0.75;;;0.60;;
52764;SDS011;38650;44.536;18.664;2022-07-06T14:08:33;0.73;;;0.60;;
52764;SDS011;38650;44.536;18.664;2022-07-06T14:11:02;0.50;;;0.50;;
52764;SDS011;38650;44.536;18.664;2022-07-06T14:13:29;2.42;;;0.60;;
52764;SDS011;38650;44.536;18.664;2022-07-06T14:15:55;0.82;;;0.60;;
52764;SDS011;38650;44.536;18.664;2022-07-06T14:18:21;1.38;;;0.50;;
52764;SDS011;38650;44.536;18.664;2022-07-06T14:20:48;1.88;;;0.60;;
52764;SDS011;38650;44.536;18.664;2022-07-06T14:23:14;0.68;;;0.68;;
52764;SDS011;38650;44.536;18.664;2022-07-06T14:25:41;0.70;;;0.60;;
52764;SDS011;38650;44.536;18.664;2022-07-06T14:28:08;1.45;;;0.60;;
52764;SDS011;38650;44.536;18.664;2022-07-06T14:30:34;0.55;;;0.55;;
52764;SDS011;38650;44.536;18.664;2022-07-06T14:33:05;1.42;;;0.73;;
52764;SDS011;38650;44.536;18.664;2022-07-06T14:35:35;0.40;;;0.40;;
52764;SDS011;38650;44.536;18.664;2022-07-06T14:38:02;1.05;;;0.65;;
52764;SDS011;38650;44.536;18.664;2022-07-06T14:40:29;0.75;;;0.50;;
52764;SDS011;38650;44.536;18.664;2022-07-06T14:42:55;0.55;;;0.50;;
52764;SDS011;38650;44.536;18.664;2022-07-06T14:45:21;1.30;;;0.68;;
52764;SDS011;38650;44.536;18.664;2022-07-06T14:47:47;0.60;;;0.60;;
52764;SDS011;38650;44.536;18.664;2022-07-06T14:50:13;1.33;;;0.60;;
52764;SDS011;38650;44.536;18.664;2022-07-06T14:52:38;0.60;;;0.60;;
52764;SDS011;38650;44.536;18.664;2022-07-06T14:55:04;0.82;;;0.73;;
52764;SDS011;38650;44.536;18.664;2022-07-06T14:57:30;2.03;;;0.77;;